Time;durP1;ratioP1;P1;durP2;ratioP2;P2;SDS_P1;SDS_P2;PMS_P1;PMS_P2;Temp;Humidity;BMP_temperature;BMP_pressure;BME280_temperature;BME280_humidity;BME280_pressure;Samples;Min_cycle;Max_cycle;Signal;HPM_P1;HPM_P2
2022/10/14 00:01:10;;;;;;;643.93;404.50;;;13.10;99.90;;;;;;5131295;27;20219;-51
2022/10/14 00:03:39;;;;;;;957.13;459.50;;;13.10;99.90;;;;;;5130329;27;20207;-51
2022/10/14 00:06:11;;;;;;;762.30;342.30;;;13.10;99.90;;;;;;5130555;27;20254;-50
2022/10/14 00:08:41;;;;;;;1052.50;533.97;;;13.10;99.90;;;;;;5130363;27;20203;-51
2022/10/14 00:11:12;;;;;;;789.13;435.87;;;13.10;99.90;;;;;;5130993;27;20202;-50
2022/10/14 00:13:40;;;;;;;647.50;263.67;;;13.10;99.90;;;;;;5130890;27;20289;-51
2022/10/14 00:16:15;;;;;;;960.10;420.20;;;13.10;99.90;;;;;;5131052;27;20234;-51
2022/10/14 00:18:43;;;;;;;786.67;416.20;;;13.10;99.90;;;;;;5131264;27;20198;-51
2022/10/14 00:21:11;;;;;;;441.30;207.33;;;13.10;99.90;;;;;;5131277;27;20222;-51
2022/10/14 00:23:41;;;;;;;695.07;302.37;;;13.10;99.90;;;;;;5130731;27;20575;-50
2022/10/14 00:26:15;;;;;;;886.80;418.23;;;13.10;99.90;;;;;;5130543;27;20317;-50
2022/10/14 00:28:43;;;;;;;691.47;356.80;;;13.00;99.90;;;;;;5117551;27;20321;-51
2022/10/14 00:31:12;;;;;;;1164.53;589.47;;;13.00;99.90;;;;;;5123726;27;20208;-51
2022/10/14 00:33:40;;;;;;;530.57;244.87;;;13.00;99.90;;;;;;5128745;27;20286;-51
2022/10/14 00:36:10;;;;;;;995.10;534.03;;;13.00;99.90;;;;;;5130507;27;20231;-50
2022/10/14 00:38:40;;;;;;;745.80;495.00;;;13.00;99.90;;;;;;5130700;27;20285;-51
2022/10/14 00:41:10;;;;;;;910.00;442.73;;;13.00;99.90;;;;;;5129562;27;20231;-51
2022/10/14 00:43:56;;;;;;;1015.47;508.67;;;13.00;99.90;;;;;;5130484;27;20290;-50
2022/10/14 00:46:26;;;;;;;283.47;134.17;;;13.00;99.90;;;;;;5131032;27;20289;-51
2022/10/14 00:48:55;;;;;;;585.10;294.07;;;12.90;99.90;;;;;;5130442;27;20209;-51
2022/10/14 00:51:23;;;;;;;695.90;326.67;;;12.90;99.90;;;;;;5130276;27;20289;-51
2022/10/14 00:53:53;;;;;;;727.63;382.93;;;12.90;99.90;;;;;;5129527;27;20278;-50
2022/10/14 00:56:24;;;;;;;729.83;413.40;;;12.90;99.90;;;;;;5130433;27;20761;-49
2022/10/14 00:58:53;;;;;;;598.70;275.73;;;12.90;99.90;;;;;;5130917;28;20223;-52
2022/10/14 01:01:22;;;;;;;1000.43;519.97;;;12.90;99.90;;;;;;5130350;27;20219;-51
2022/10/14 01:03:50;;;;;;;757.80;380.70;;;12.90;99.90;;;;;;5128706;27;20213;-50
2022/10/14 01:06:30;;;;;;;1050.20;518.80;;;12.90;99.90;;;;;;5130011;27;20225;-51
2022/10/14 01:09:09;;;;;;;646.70;295.03;;;13.00;99.90;;;;;;5130384;27;20219;-52
2022/10/14 01:11:43;;;;;;;864.63;385.93;;;12.90;99.90;;;;;;5115895;28;20198;-50
2022/10/14 01:14:22;;;;;;;803.60;421.10;;;12.90;99.90;;;;;;5130124;27;20226;-50
2022/10/14 01:16:55;;;;;;;737.80;349.63;;;12.90;99.90;;;;;;5130437;27;20285;-51
2022/10/14 01:19:48;;;;;;;222.77;91.87;;;12.90;99.90;;;;;;5133083;27;20207;-51
2022/10/14 01:22:23;;;;;;;624.30;303.17;;;12.80;99.90;;;;;;5123573;27;20203;-51
2022/10/14 01:25:06;;;;;;;481.97;299.53;;;12.80;99.90;;;;;;5134145;27;20229;-51
2022/10/14 01:27:59;;;;;;;496.30;246.23;;;12.90;99.90;;;;;;5134600;27;20293;-51
2022/10/14 01:30:32;;;;;;;283.73;139.70;;;12.90;99.90;;;;;;5120195;27;20571;-50
2022/10/14 01:33:08;;;;;;;511.20;260.23;;;12.90;99.90;;;;;;5127335;27;20488;-52
2022/10/14 01:35:44;;;;;;;722.83;322.10;;;12.90;99.90;;;;;;5133724;27;20226;-51
2022/10/14 01:38:17;;;;;;;422.07;263.73;;;12.90;99.90;;;;;;5132364;27;20293;-50
2022/10/14 01:40:53;;;;;;;527.20;238.37;;;12.90;99.90;;;;;;5126298;27;20222;-51
2022/10/14 01:43:23;;;;;;;658.20;334.80;;;12.80;99.90;;;;;;5137927;27;20301;-51
2022/10/14 01:45:55;;;;;;;537.33;297.97;;;12.80;99.90;;;;;;5134185;27;20234;-51
2022/10/14 01:48:27;;;;;;;685.30;361.37;;;12.80;99.90;;;;;;5143222;27;20285;-51
2022/10/14 01:50:59;;;;;;;633.97;321.40;;;12.80;99.90;;;;;;5154266;27;20678;-52
2022/10/14 01:53:32;;;;;;;620.63;298.37;;;12.80;99.90;;;;;;5154662;27;20228;-50
2022/10/14 01:56:02;;;;;;;760.83;363.40;;;12.80;99.90;;;;;;5139864;27;20318;-51
2022/10/14 01:58:32;;;;;;;659.47;421.73;;;12.80;99.90;;;;;;5155005;27;20209;-51
2022/10/14 02:01:02;;;;;;;616.60;328.93;;;12.80;99.90;;;;;;5154805;27;20253;-51
2022/10/14 02:03:39;;;;;;;752.93;468.63;;;12.90;99.90;;;;;;5154436;27;20281;-50
2022/10/14 02:06:12;;;;;;;837.63;388.20;;;12.90;99.90;;;;;;5154210;27;20221;-51
2022/10/14 02:08:57;;;;;;;618.30;327.67;;;12.80;99.90;;;;;;5155413;27;20202;-51
2022/10/14 02:11:26;;;;;;;715.10;369.17;;;12.80;99.90;;;;;;5153659;27;20293;-52
2022/10/14 02:14:14;;;;;;;688.13;298.10;;;12.80;99.90;;;;;;5143200;27;20297;-51
2022/10/14 02:16:51;;;;;;;778.07;378.43;;;12.80;99.90;;;;;;5155989;27;20273;-51
2022/10/14 02:19:26;;;;;;;628.30;258.50;;;12.70;99.90;;;;;;5155407;27;20205;-51
2022/10/14 02:22:01;;;;;;;733.60;329.93;;;12.70;99.90;;;;;;5138633;27;20209;-51
2022/10/14 02:24:34;;;;;;;698.50;350.93;;;12.80;99.90;;;;;;5153885;27;20312;-51
2022/10/14 02:27:06;;;;;;;542.90;299.17;;;12.80;99.90;;;;;;5153387;27;20209;-50
2022/10/14 02:29:36;;;;;;;804.80;317.90;;;12.80;99.90;;;;;;5151815;27;20309;-51
2022/10/14 02:32:07;;;;;;;671.87;328.23;;;12.80;99.90;;;;;;5142325;27;20293;-51
2022/10/14 02:34:36;;;;;;;760.77;410.50;;;12.80;99.90;;;;;;5144577;27;20308;-50
2022/10/14 02:37:06;;;;;;;789.87;364.93;;;12.80;99.90;;;;;;5152836;27;20696;-51
2022/10/14 02:39:37;;;;;;;645.43;266.20;;;12.80;99.90;;;;;;5154533;27;20292;-50
2022/10/14 02:42:06;;;;;;;315.30;145.80;;;12.80;99.90;;;;;;5151196;27;20214;-51
2022/10/14 02:44:34;;;;;;;553.37;238.97;;;12.80;99.90;;;;;;5154081;27;20684;-50
2022/10/14 02:47:02;;;;;;;814.27;399.97;;;12.80;99.90;;;;;;5139739;27;20243;-50
2022/10/14 02:49:31;;;;;;;585.53;353.57;;;12.80;99.90;;;;;;5124442;27;20580;-51
2022/10/14 02:51:59;;;;;;;848.67;452.67;;;12.80;99.90;;;;;;5152925;27;20297;-49
2022/10/14 02:54:27;;;;;;;824.47;384.03;;;12.80;99.90;;;;;;5152920;27;20778;-51
2022/10/14 02:56:55;;;;;;;491.87;297.60;;;12.80;99.90;;;;;;5153272;27;20297;-51
2022/10/14 02:59:23;;;;;;;485.70;214.77;;;12.80;99.90;;;;;;5138749;27;20220;-51
2022/10/14 03:01:51;;;;;;;524.30;229.17;;;12.80;99.90;;;;;;5153047;27;20309;-50
2022/10/14 03:04:19;;;;;;;445.33;193.60;;;12.90;99.90;;;;;;5153048;27;20293;-50
2022/10/14 03:06:49;;;;;;;641.30;299.57;;;12.80;99.90;;;;;;5152756;27;20198;-51
2022/10/14 03:09:17;;;;;;;532.67;256.13;;;12.80;99.90;;;;;;5152840;27;20648;-51
2022/10/14 03:11:45;;;;;;;467.23;214.87;;;12.80;99.90;;;;;;5152506;27;20195;-49
2022/10/14 03:14:13;;;;;;;630.43;274.57;;;12.80;99.90;;;;;;5153215;27;20230;-50
2022/10/14 03:16:41;;;;;;;795.60;381.77;;;12.80;99.90;;;;;;5152462;27;20285;-51
2022/10/14 03:19:09;;;;;;;689.33;369.70;;;12.80;99.90;;;;;;5131211;27;20578;-50
2022/10/14 03:21:37;;;;;;;724.30;404.70;;;12.80;99.90;;;;;;5150034;27;20605;-51
2022/10/14 03:24:08;;;;;;;727.77;333.00;;;12.80;99.90;;;;;;5151351;27;20593;-51
2022/10/14 03:26:36;;;;;;;972.80;436.83;;;12.80;99.90;;;;;;5152016;27;20209;-51
2022/10/14 03:29:04;;;;;;;593.97;283.83;;;12.80;99.90;;;;;;5142237;27;20236;-51
2022/10/14 03:31:32;;;;;;;717.30;362.13;;;12.80;99.90;;;;;;5145006;27;20210;-51
2022/10/14 03:34:01;;;;;;;662.50;330.93;;;12.80;99.90;;;;;;5151282;27;20298;-51
2022/10/14 03:36:29;;;;;;;985.67;526.33;;;12.80;99.90;;;;;;5139418;27;20203;-51
2022/10/14 03:38:57;;;;;;;663.77;335.40;;;12.80;99.90;;;;;;5152866;27;20205;-50
2022/10/14 03:41:26;;;;;;;610.40;271.37;;;12.80;99.90;;;;;;5152234;27;20226;-51
2022/10/14 03:43:54;;;;;;;805.23;395.37;;;12.70;99.90;;;;;;5152146;27;20194;-50
2022/10/14 03:46:22;;;;;;;655.40;339.13;;;12.80;99.90;;;;;;5144370;27;20289;-51
2022/10/14 03:48:50;;;;;;;899.37;469.13;;;12.80;99.90;;;;;;5134863;27;20299;-50
2022/10/14 03:51:18;;;;;;;658.83;305.00;;;12.80;99.90;;;;;;5152300;27;20569;-50
2022/10/14 03:53:46;;;;;;;714.33;304.77;;;12.80;99.90;;;;;;5152004;27;20570;-51
2022/10/14 03:56:14;;;;;;;476.57;234.47;;;12.80;99.90;;;;;;5147531;27;20313;-51
2022/10/14 03:58:44;;;;;;;1011.50;497.23;;;12.80;99.90;;;;;;5143937;27;20208;-50
2022/10/14 04:01:12;;;;;;;586.53;241.77;;;12.80;99.90;;;;;;5145538;27;20287;-50
2022/10/14 04:03:40;;;;;;;794.97;345.10;;;12.80;99.90;;;;;;5151855;27;20305;-51
2022/10/14 04:06:08;;;;;;;618.67;289.63;;;12.80;99.90;;;;;;5151547;27;20980;-51
2022/10/14 04:08:36;;;;;;;836.53;464.43;;;12.80;99.90;;;;;;5148963;27;20210;-51
2022/10/14 04:11:05;;;;;;;735.33;474.90;;;12.80;99.90;;;;;;5146764;27;20662;-51
2022/10/14 04:13:33;;;;;;;844.33;432.80;;;12.80;99.90;;;;;;5150559;27;20245;-50
2022/10/14 04:16:04;;;;;;;509.17;204.57;;;12.80;99.90;;;;;;5151424;27;20620;-51
2022/10/14 04:18:32;;;;;;;850.60;379.33;;;12.80;99.90;;;;;;5142491;27;20201;-52
2022/10/14 04:21:01;;;;;;;575.30;308.70;;;12.70;99.90;;;;;;5149061;27;20293;-51
2022/10/14 04:23:29;;;;;;;790.87;386.00;;;12.80;99.90;;;;;;5124326;27;20337;-50
2022/10/14 04:25:57;;;;;;;845.17;481.40;;;12.70;99.90;;;;;;5120324;27;20219;-51
2022/10/14 04:28:25;;;;;;;625.13;236.13;;;12.70;99.90;;;;;;5130967;27;20897;-50
2022/10/14 04:30:53;;;;;;;745.73;322.90;;;12.70;99.90;;;;;;5130677;27;20205;-51
2022/10/14 04:33:24;;;;;;;739.90;323.70;;;12.70;99.90;;;;;;5129458;27;20262;-51
2022/10/14 04:35:57;;;;;;;781.67;444.00;;;12.70;99.90;;;;;;5130476;27;20363;-51
2022/10/14 04:38:25;;;;;;;786.57;451.30;;;12.70;99.90;;;;;;5130008;27;20199;-50
2022/10/14 04:40:53;;;;;;;762.03;359.17;;;12.70;99.90;;;;;;5130890;27;20207;-51
2022/10/14 04:43:21;;;;;;;788.23;379.07;;;12.70;99.90;;;;;;5130036;27;20225;-52
2022/10/14 04:45:50;;;;;;;752.60;322.87;;;12.70;99.90;;;;;;5131104;27;20305;-50
2022/10/14 04:48:18;;;;;;;763.60;354.50;;;12.60;99.90;;;;;;5130312;27;20646;-51
2022/10/14 04:50:50;;;;;;;848.60;377.93;;;12.70;99.90;;;;;;5130708;27;20203;-51
2022/10/14 04:53:18;;;;;;;636.83;301.73;;;12.70;99.90;;;;;;5129983;27;20203;-51
2022/10/14 04:55:50;;;;;;;727.83;332.00;;;12.70;99.90;;;;;;5129991;27;20227;-51
2022/10/14 04:58:18;;;;;;;443.73;175.17;;;12.60;99.90;;;;;;5130909;28;20260;-49
2022/10/14 05:00:46;;;;;;;732.67;261.40;;;12.70;99.90;;;;;;5130550;27;20222;-51
2022/10/14 05:03:14;;;;;;;655.13;298.53;;;12.70;99.90;;;;;;5130208;27;20227;-51
2022/10/14 05:05:42;;;;;;;789.13;397.73;;;12.70;99.90;;;;;;5129985;27;20230;-50
2022/10/14 05:08:12;;;;;;;673.93;316.40;;;12.70;99.90;;;;;;5130566;27;20298;-51
2022/10/14 05:10:40;;;;;;;744.57;388.03;;;12.80;99.90;;;;;;5129807;27;20651;-52
2022/10/14 05:13:08;;;;;;;766.00;282.53;;;12.80;99.90;;;;;;5126637;27;20198;-51
2022/10/14 05:15:36;;;;;;;969.60;437.50;;;12.80;99.90;;;;;;5123843;27;20309;-50
2022/10/14 05:18:05;;;;;;;672.40;305.77;;;12.70;99.90;;;;;;5129182;27;20641;-50
2022/10/14 05:20:33;;;;;;;588.00;284.97;;;12.70;99.90;;;;;;5129817;27;20210;-50
2022/10/14 05:23:01;;;;;;;793.60;335.00;;;12.80;99.90;;;;;;5129957;27;20591;-50
2022/10/14 05:25:30;;;;;;;671.40;266.60;;;12.80;99.90;;;;;;5130462;27;20223;-50
2022/10/14 05:27:58;;;;;;;831.73;348.23;;;12.80;99.90;;;;;;5129928;27;20221;-50
2022/10/14 05:30:26;;;;;;;723.30;374.07;;;12.80;99.90;;;;;;5129942;27;20297;-51
2022/10/14 05:33:01;;;;;;;490.43;216.63;;;12.70;99.90;;;;;;5128596;27;20198;-51
2022/10/14 05:35:29;;;;;;;790.43;353.30;;;12.80;99.90;;;;;;5130154;28;20306;-51
2022/10/14 05:38:17;;;;;;;285.03;136.33;;;12.80;99.90;;;;;;5134846;27;20597;-51
2022/10/14 05:40:53;;;;;;;797.97;440.47;;;12.80;99.90;;;;;;5146464;27;20686;-51
2022/10/14 05:43:23;;;;;;;450.63;226.43;;;12.80;99.90;;;;;;5141201;27;20224;-50
2022/10/14 05:45:58;;;;;;;650.03;294.37;;;12.80;99.90;;;;;;5133456;27;20704;-51
2022/10/14 05:48:26;;;;;;;579.47;312.00;;;12.80;99.90;;;;;;5116766;27;20656;-51
2022/10/14 05:50:54;;;;;;;506.03;246.40;;;12.80;99.90;;;;;;5119147;27;20293;-51
2022/10/14 05:53:22;;;;;;;459.77;201.57;;;12.80;99.90;;;;;;5150217;27;20206;-51
2022/10/14 05:55:52;;;;;;;1058.33;531.57;;;12.80;99.90;;;;;;5138295;27;20243;-51
2022/10/14 05:58:20;;;;;;;474.57;218.10;;;12.80;99.90;;;;;;5150653;27;20210;-51
2022/10/14 06:00:48;;;;;;;1010.07;524.73;;;12.80;99.90;;;;;;5149964;27;20689;-50
2022/10/14 06:03:16;;;;;;;748.17;313.67;;;12.80;99.90;;;;;;5137835;27;20281;-51
2022/10/14 06:05:45;;;;;;;699.30;269.63;;;12.80;99.90;;;;;;5152194;27;20730;-50
2022/10/14 06:08:14;;;;;;;851.07;384.83;;;12.80;99.90;;;;;;5139889;27;20285;-50
2022/10/14 06:10:42;;;;;;;971.03;505.40;;;12.80;99.90;;;;;;5154090;27;20217;-51
2022/10/14 06:13:11;;;;;;;510.80;232.50;;;12.80;99.90;;;;;;5152889;27;20920;-51
2022/10/14 06:15:39;;;;;;;892.17;438.97;;;12.80;99.90;;;;;;5147029;27;20321;-52
2022/10/14 06:18:07;;;;;;;736.33;377.80;;;12.80;99.90;;;;;;5149185;27;20569;-51
2022/10/14 06:20:36;;;;;;;769.53;303.00;;;12.80;99.90;;;;;;5132738;27;20302;-51
2022/10/14 06:23:04;;;;;;;549.07;250.10;;;12.80;99.90;;;;;;5132454;27;20231;-51
2022/10/14 06:25:32;;;;;;;793.30;361.10;;;12.80;99.90;;;;;;5131151;27;20223;-51
2022/10/14 06:28:05;;;;;;;625.43;282.07;;;12.80;99.90;;;;;;5136259;27;20213;-51
2022/10/14 06:30:34;;;;;;;612.20;271.67;;;12.80;99.90;;;;;;5132882;27;20633;-50
2022/10/14 06:33:02;;;;;;;824.83;500.03;;;12.80;99.90;;;;;;5131680;27;20199;-50
2022/10/14 06:35:30;;;;;;;867.50;343.80;;;12.80;99.90;;;;;;5146780;27;20313;-51
2022/10/14 06:37:58;;;;;;;547.60;203.83;;;12.90;99.90;;;;;;5125183;27;20654;-50
2022/10/14 06:40:26;;;;;;;815.40;314.23;;;12.90;99.90;;;;;;5150381;27;20289;-50
2022/10/14 06:42:54;;;;;;;908.00;387.50;;;12.90;99.90;;;;;;5136961;27;20319;-50
2022/10/14 06:45:23;;;;;;;1113.73;498.50;;;12.90;99.90;;;;;;5144327;27;20308;-51
2022/10/14 06:47:52;;;;;;;815.57;417.63;;;12.90;99.90;;;;;;5148922;27;20289;-50
2022/10/14 06:50:20;;;;;;;834.30;381.40;;;12.90;99.90;;;;;;5153354;27;20206;-50
2022/10/14 06:52:48;;;;;;;921.13;375.60;;;12.90;99.90;;;;;;5140188;27;20758;-51
2022/10/14 06:55:17;;;;;;;955.57;425.70;;;12.90;99.90;;;;;;5151300;27;20226;-50
2022/10/14 06:57:45;;;;;;;551.17;265.10;;;12.90;99.90;;;;;;5147496;27;20298;-51
2022/10/14 07:00:13;;;;;;;983.03;522.27;;;12.90;99.90;;;;;;5139180;27;20213;-51
2022/10/14 07:02:42;;;;;;;744.23;272.93;;;13.00;99.90;;;;;;5153389;27;20205;-50
2022/10/14 07:05:12;;;;;;;1137.30;480.30;;;13.00;99.90;;;;;;5144964;27;20309;-52
2022/10/14 07:07:40;;;;;;;728.97;262.27;;;13.00;99.90;;;;;;5142995;27;20333;-50
2022/10/14 07:10:09;;;;;;;802.97;373.53;;;12.90;99.90;;;;;;5137842;27;20206;-51
2022/10/14 07:12:37;;;;;;;1107.47;576.00;;;13.00;99.90;;;;;;5133959;27;20285;-51
2022/10/14 07:15:06;;;;;;;857.03;423.07;;;13.00;99.90;;;;;;5149976;27;20305;-52
2022/10/14 07:17:34;;;;;;;808.43;301.87;;;13.00;99.90;;;;;;5150131;27;20217;-51
2022/10/14 07:20:02;;;;;;;637.67;246.80;;;13.10;99.90;;;;;;5152639;27;21043;-51
2022/10/14 07:22:31;;;;;;;1060.33;409.70;;;13.10;99.90;;;;;;5151238;27;20202;-50
2022/10/14 07:25:06;;;;;;;805.17;350.57;;;13.10;99.90;;;;;;5131075;27;20230;-49
2022/10/14 07:27:34;;;;;;;598.00;253.23;;;13.10;99.90;;;;;;5131594;27;20699;-51
2022/10/14 07:30:02;;;;;;;711.13;274.63;;;13.10;99.90;;;;;;5131723;27;20206;-51
2022/10/14 07:32:30;;;;;;;618.10;301.37;;;13.10;99.90;;;;;;5130983;27;20293;-51
2022/10/14 07:34:58;;;;;;;767.90;306.63;;;13.10;99.90;;;;;;5142990;27;20305;-51
2022/10/14 07:37:26;;;;;;;863.87;347.00;;;13.10;99.90;;;;;;5152734;27;20336;-51
2022/10/14 07:39:56;;;;;;;944.07;497.53;;;13.10;99.90;;;;;;5152497;27;20296;-51
2022/10/14 07:42:24;;;;;;;653.43;267.93;;;13.10;99.90;;;;;;5151175;27;20221;-50
2022/10/14 07:44:53;;;;;;;1125.93;542.87;;;13.10;99.90;;;;;;5150937;27;20228;-50
2022/10/14 07:47:21;;;;;;;919.20;385.40;;;13.10;99.90;;;;;;5149979;27;20738;-51
2022/10/14 07:49:50;;;;;;;972.47;443.60;;;13.10;99.90;;;;;;5148843;27;20194;-52
2022/10/14 07:52:19;;;;;;;937.23;335.20;;;13.10;99.90;;;;;;5146064;27;20202;-51
2022/10/14 07:54:46;;;;;;;890.73;496.53;;;13.10;99.90;;;;;;5152321;27;20216;-51
2022/10/14 07:57:16;;;;;;;1190.13;538.83;;;13.10;99.90;;;;;;5136026;27;20207;-51
2022/10/14 07:59:45;;;;;;;928.23;390.43;;;13.10;99.90;;;;;;5131504;27;20637;-50
2022/10/14 08:02:13;;;;;;;957.10;349.00;;;13.20;99.90;;;;;;5130958;27;20242;-51
2022/10/14 08:04:41;;;;;;;976.30;387.10;;;13.20;99.90;;;;;;5116648;27;20680;-51
2022/10/14 08:07:09;;;;;;;810.50;372.90;;;13.30;99.90;;;;;;5131326;27;20582;-51
2022/10/14 08:09:37;;;;;;;1156.33;475.07;;;13.30;99.90;;;;;;5131425;27;20209;-50
2022/10/14 08:12:06;;;;;;;644.57;236.03;;;13.20;99.90;;;;;;5130177;27;20735;-51
2022/10/14 08:14:35;;;;;;;1284.30;573.53;;;13.30;99.90;;;;;;5130642;27;20302;-50
2022/10/14 08:17:03;;;;;;;763.87;314.30;;;13.20;99.90;;;;;;5131294;27;20321;-51
2022/10/14 08:19:31;;;;;;;987.53;450.30;;;13.30;99.90;;;;;;5130726;27;20776;-51
2022/10/14 08:21:59;;;;;;;768.03;327.70;;;13.30;99.90;;;;;;5130477;27;20830;-51
2022/10/14 08:24:27;;;;;;;989.73;448.83;;;13.40;99.90;;;;;;5130716;27;20338;-51
2022/10/14 08:26:59;;;;;;;388.43;174.30;;;13.40;99.90;;;;;;5130523;27;20895;-51
2022/10/14 08:29:27;;;;;;;872.10;388.63;;;13.50;99.90;;;;;;5129483;27;20317;-50
2022/10/14 08:31:56;;;;;;;840.33;357.77;;;13.50;99.90;;;;;;5123795;27;20660;-51
2022/10/14 08:34:24;;;;;;;941.57;466.20;;;13.50;99.90;;;;;;5138238;27;20229;-50
2022/10/14 08:36:52;;;;;;;1043.50;459.00;;;13.50;99.90;;;;;;5138934;27;20234;-51
2022/10/14 08:39:21;;;;;;;1106.83;400.20;;;13.50;99.90;;;;;;5150986;27;20674;-52
2022/10/14 08:42:18;;;;;;;1173.70;438.67;;;13.50;99.90;;;;;;5144864;27;20304;-51
2022/10/14 08:44:51;;;;;;;1029.40;461.37;;;13.60;99.90;;;;;;5127979;27;20261;-51
2022/10/14 08:47:25;;;;;;;1262.47;567.63;;;13.60;99.90;;;;;;5151346;27;20566;-51
2022/10/14 08:50:01;;;;;;;708.03;319.67;;;13.70;99.90;;;;;;5151393;27;20285;-51
2022/10/14 08:52:34;;;;;;;900.80;399.83;;;13.70;99.90;;;;;;5151056;27;20745;-50
2022/10/14 08:55:19;;;;;;;996.80;587.77;;;13.80;99.90;;;;;;5151297;27;20226;-52
2022/10/14 08:57:51;;;;;;;746.83;362.07;;;13.80;99.90;;;;;;5151921;27;20285;-51
2022/10/14 09:00:20;;;;;;;892.57;377.33;;;13.80;99.90;;;;;;5135123;27;20221;-51
2022/10/14 09:02:51;;;;;;;1253.07;433.07;;;13.80;99.90;;;;;;5130058;27;20242;-51
2022/10/14 09:05:23;;;;;;;1279.23;489.03;;;13.80;99.90;;;;;;5129867;27;20703;-51
2022/10/14 09:07:55;;;;;;;1639.73;571.07;;;13.80;99.90;;;;;;5130666;27;20203;-51
2022/10/14 09:10:29;;;;;;;913.83;400.50;;;13.80;99.90;;;;;;5130368;27;20230;-51
2022/10/14 09:13:00;;;;;;;1127.73;481.67;;;13.70;99.90;;;;;;5129491;27;20238;-51
2022/10/14 09:15:33;;;;;;;1128.63;596.33;;;13.80;99.90;;;;;;5130755;27;20309;-51
2022/10/14 09:18:06;;;;;;;1678.50;584.10;;;13.80;99.90;;;;;;5130026;27;20222;-51
2022/10/14 09:20:34;;;;;;;869.07;325.30;;;13.80;99.90;;;;;;5130365;27;20289;-51
2022/10/14 09:23:15;;;;;;;1177.53;513.50;;;13.80;99.90;;;;;;5131670;27;20207;-50
2022/10/14 09:25:51;;;;;;;1240.73;498.17;;;13.80;99.90;;;;;;5131378;27;20265;-51
2022/10/14 09:28:19;;;;;;;1792.67;611.63;;;13.70;99.90;;;;;;5131993;27;20293;-51
2022/10/14 09:30:47;;;;;;;864.67;320.87;;;13.80;99.90;;;;;;5129186;27;20238;-51
2022/10/14 09:33:19;;;;;;;1366.73;483.67;;;13.80;99.90;;;;;;5129759;27;20314;-50
2022/10/14 09:35:48;;;;;;;1999.90;719.80;;;13.90;99.90;;;;;;5139030;27;20253;-51
2022/10/14 09:38:17;;;;;;;1160.33;490.30;;;14.00;99.90;;;;;;5150642;27;20335;-51
2022/10/14 09:40:47;;;;;;;949.53;439.37;;;14.00;99.90;;;;;;5154009;27;20301;-50
2022/10/14 09:43:18;;;;;;;1059.53;514.40;;;14.00;99.90;;;;;;5154278;27;20285;-51
2022/10/14 09:45:56;;;;;;;1059.97;376.43;;;14.00;99.90;;;;;;5152376;27;20282;-51
2022/10/14 09:48:36;;;;;;;998.53;441.80;;;14.10;99.90;;;;;;5154683;27;20205;-51
2022/10/14 09:51:07;;;;;;;991.00;456.07;;;14.20;99.90;;;;;;5150267;27;20238;-50
2022/10/14 09:53:40;;;;;;;1298.50;537.17;;;14.20;99.90;;;;;;5144600;27;20734;-51
2022/10/14 09:56:09;;;;;;;941.83;450.83;;;14.20;99.90;;;;;;5153664;27;20264;-50
2022/10/14 09:58:43;;;;;;;1039.80;434.73;;;14.20;99.90;;;;;;5154246;27;20659;-50
2022/10/14 10:01:15;;;;;;;952.10;378.77;;;14.10;99.90;;;;;;5153446;27;20289;-51
2022/10/14 10:03:46;;;;;;;1051.47;481.23;;;14.10;99.90;;;;;;5148448;27;20290;-52
2022/10/14 10:06:17;;;;;;;1242.17;548.93;;;14.10;99.90;;;;;;5150979;27;20230;-51
2022/10/14 10:08:56;;;;;;;781.90;340.53;;;14.10;99.90;;;;;;5154503;27;20289;-48
2022/10/14 10:11:29;;;;;;;960.37;463.83;;;14.10;99.90;;;;;;5153867;27;20226;-50
2022/10/14 10:13:57;;;;;;;949.73;422.97;;;14.10;99.90;;;;;;5143653;27;20301;-52
2022/10/14 10:16:30;;;;;;;1168.87;477.80;;;14.20;99.90;;;;;;5153947;27;20238;-50
2022/10/14 10:19:25;;;;;;;923.00;397.67;;;14.20;99.90;;;;;;5153767;27;20243;-51
2022/10/14 10:21:53;;;;;;;1122.27;497.87;;;14.20;99.90;;;;;;5153564;27;20206;-51
2022/10/14 10:24:23;;;;;;;883.97;375.03;;;14.20;99.90;;;;;;5150505;27;20322;-51
2022/10/14 10:26:57;;;;;;;1335.60;658.37;;;14.30;99.90;;;;;;5152801;27;20297;-50
2022/10/14 10:29:27;;;;;;;1193.23;416.73;;;14.30;99.90;;;;;;5143012;27;20203;-51
2022/10/14 10:32:06;;;;;;;1521.37;640.93;;;14.20;99.90;;;;;;5142839;27;20577;-51
2022/10/14 10:34:56;;;;;;;1503.17;559.17;;;14.20;99.90;;;;;;5128503;27;20740;-51
2022/10/14 10:37:29;;;;;;;787.10;344.73;;;14.20;99.90;;;;;;5153340;27;20317;-50
2022/10/14 10:40:30;;;;;;;922.47;323.00;;;14.20;99.90;;;;;;5152526;27;20206;-50
2022/10/14 10:43:12;;;;;;;915.17;451.97;;;14.30;99.90;;;;;;5127539;27;20780;-51
2022/10/14 10:45:53;;;;;;;1171.07;484.13;;;14.30;99.90;;;;;;5146260;27;20317;-50
2022/10/14 10:48:27;;;;;;;1482.43;541.70;;;14.30;99.90;;;;;;5153684;27;20202;-51
2022/10/14 10:51:00;;;;;;;1106.47;541.83;;;14.30;99.90;;;;;;5148257;27;20947;-51
2022/10/14 10:53:59;;;;;;;1017.97;452.60;;;14.40;99.90;;;;;;5132090;27;20199;-50
2022/10/14 10:56:37;;;;;;;730.63;324.60;;;14.40;99.90;;;;;;5105033;27;20217;-51
2022/10/14 10:59:29;;;;;;;913.13;441.60;;;14.40;99.90;;;;;;5132369;27;20233;-51
2022/10/14 11:02:16;;;;;;;1353.37;593.67;;;14.40;99.90;;;;;;5130184;27;20245;-49
2022/10/14 11:04:47;;;;;;;893.40;458.27;;;14.40;99.90;;;;;;5124162;27;20226;-51
2022/10/14 11:13:20;;;;;;;1324.63;509.27;;;14.40;99.90;;;;;;5129155;27;20686;-50
2022/10/14 11:15:53;;;;;;;1203.53;442.27;;;14.30;99.90;;;;;;5131076;27;20229;-50
2022/10/14 11:18:29;;;;;;;1041.47;481.67;;;14.30;99.90;;;;;;5130549;27;20285;-51
2022/10/14 11:21:08;;;;;;;762.40;332.55;;;14.30;99.90;;;;;;5130353;27;20198;-52
2022/10/14 11:23:58;;;;;;;1106.60;397.70;;;14.30;99.90;;;;;;5120267;27;20214;-50
2022/10/14 11:26:44;;;;;;;667.97;272.50;;;14.30;99.90;;;;;;5131253;27;20229;-51
2022/10/14 11:29:29;;;;;;;1130.03;488.10;;;14.40;99.90;;;;;;5128663;27;20289;-51
2022/10/14 11:32:07;;;;;;;870.23;431.33;;;14.30;99.90;;;;;;5129668;27;20286;-51
2022/10/14 11:34:46;;;;;;;1046.70;503.03;;;14.30;99.90;;;;;;5139116;27;20221;-51
2022/10/14 11:37:26;;;;;;;1012.70;429.47;;;14.30;99.90;;;;;;5151523;27;20198;-51
2022/10/14 11:40:00;;;;;;;1320.83;472.50;;;14.30;99.90;;;;;;5146064;27;20313;-51
2022/10/14 11:42:42;;;;;;;1165.77;455.13;;;14.30;99.90;;;;;;5147610;27;20277;-51
2022/10/14 11:45:28;;;;;;;1081.07;482.60;;;14.30;99.90;;;;;;5152420;27;20224;-50
2022/10/14 11:48:08;;;;;;;1803.85;630.60;;;14.30;99.90;;;;;;5148484;27;20199;-51
2022/10/14 11:50:40;;;;;;;1127.23;424.00;;;14.40;99.90;;;;;;5145942;27;20292;-50
2022/10/14 11:53:13;;;;;;;1129.10;476.00;;;14.40;99.90;;;;;;5146246;27;20212;-52
2022/10/14 11:55:47;;;;;;;1301.33;471.57;;;14.50;99.90;;;;;;5146678;27;20778;-51
2022/10/14 11:58:20;;;;;;;1146.57;518.07;;;14.50;99.90;;;;;;5151986;27;20724;-51
2022/10/14 12:00:51;;;;;;;967.43;403.53;;;14.50;99.90;;;;;;5152321;27;20236;-52
2022/10/14 12:03:26;;;;;;;1524.77;616.57;;;14.50;99.90;;;;;;5152214;27;20313;-51
2022/10/14 12:06:01;;;;;;;1049.40;558.53;;;14.50;99.90;;;;;;5152203;27;20313;-52
2022/10/14 12:08:36;;;;;;;1055.17;474.83;;;14.50;99.90;;;;;;5152070;27;20270;-51
2022/10/14 12:11:11;;;;;;;1161.80;556.13;;;14.40;99.90;;;;;;5151465;27;20601;-51
2022/10/14 12:13:43;;;;;;;1150.53;536.43;;;14.40;99.90;;;;;;5151345;27;20202;-50
2022/10/14 12:16:15;;;;;;;1520.87;575.60;;;14.40;99.90;;;;;;5151559;27;20225;-51
2022/10/14 12:18:46;;;;;;;968.23;360.47;;;14.40;99.90;;;;;;5150511;27;20808;-51
2022/10/14 12:21:19;;;;;;;1430.93;605.27;;;14.30;99.90;;;;;;5151828;27;20297;-51
2022/10/14 12:23:52;;;;;;;1292.10;492.47;;;14.40;99.90;;;;;;5151547;27;20813;-52
2022/10/14 12:26:48;;;;;;;978.40;318.20;;;14.50;99.90;;;;;;5150888;27;20658;-50
2022/10/14 12:29:20;;;;;;;914.50;441.50;;;14.60;99.90;;;;;;5141453;27;20579;-51
2022/10/14 12:31:51;;;;;;;1107.63;492.90;;;14.60;99.90;;;;;;5139518;27;20206;-51
2022/10/14 12:34:45;;;;;;;1429.60;484.03;;;14.60;99.90;;;;;;5121756;27;20230;-52